createdAt,value
2018-10-06T00:00:45.921Z,9.83
2018-10-06T00:05:43.397Z,10.37
2018-10-06T00:10:40.878Z,10.43
2018-10-06T00:15:38.376Z,8.07
2018-10-06T00:20:35.861Z,8.50
2018-10-06T00:25:33.346Z,6.97
2018-10-06T00:30:30.850Z,7.33
2018-10-06T00:35:28.321Z,11.83
2018-10-06T00:40:25.790Z,8.53
2018-10-06T00:45:23.295Z,7.80
2018-10-06T00:50:21.934Z,11.47
2018-10-06T00:55:19.428Z,14.23
2018-10-06T01:00:16.896Z,15.23
2018-10-06T01:05:14.350Z,7.30
2018-10-06T01:10:11.833Z,10.13
2018-10-06T01:15:09.348Z,6.73
2018-10-06T01:20:09.602Z,7.23
2018-10-06T01:25:07.127Z,7.47
2018-10-06T01:30:04.625Z,7.47
2018-10-06T01:35:02.120Z,7.13
2018-10-06T01:39:59.610Z,9.20
2018-10-06T01:44:57.081Z,14.17
2018-10-06T01:49:55.690Z,8.87
2018-10-06T01:54:53.229Z,8.93
2018-10-06T01:59:50.690Z,14.00
2018-10-06T02:04:48.166Z,9.20
2018-10-06T02:09:45.733Z,12.07
2018-10-06T02:14:43.366Z,11.03
2018-10-06T02:19:51.318Z,11.30
2018-10-06T02:24:49.301Z,7.13
2018-10-06T02:29:46.758Z,11.60
2018-10-06T02:34:44.257Z,10.10
2018-10-06T02:39:41.725Z,13.47
2018-10-06T02:44:39.215Z,11.93
2018-10-06T02:54:46.189Z,19.77
2018-10-06T02:59:43.658Z,11.60
2018-10-06T03:04:41.118Z,9.10
2018-10-06T03:09:38.672Z,15.20
2018-10-06T03:14:36.135Z,14.13
2018-10-06T03:19:38.312Z,10.47
2018-10-06T03:24:35.823Z,13.17
2018-10-06T03:29:33.294Z,17.77
2018-10-06T03:34:30.749Z,17.77
2018-10-06T03:39:28.222Z,18.07
2018-10-06T03:44:25.658Z,11.63
2018-10-06T03:49:32.566Z,12.97
2018-10-06T03:54:30.167Z,19.40
2018-10-06T03:59:27.625Z,20.23
2018-10-06T04:04:25.168Z,14.00
2018-10-06T04:09:23.258Z,15.37
2018-10-06T04:14:20.733Z,16.13
2018-10-06T04:19:26.124Z,12.77
2018-10-06T04:24:23.689Z,13.20
2018-10-06T04:29:21.210Z,23.33
2018-10-06T04:34:18.702Z,16.13
2018-10-06T04:39:16.189Z,15.10
2018-10-06T04:44:13.658Z,16.53
2018-10-06T04:49:13.794Z,19.63
2018-10-06T04:54:11.284Z,15.57
2018-10-06T04:59:08.773Z,22.37
2018-10-06T05:04:06.327Z,19.83
2018-10-06T05:09:04.856Z,16.30
2018-10-06T05:14:02.370Z,17.03
2018-10-06T05:19:00.011Z,15.60
2018-10-06T05:23:57.527Z,24.20
2018-10-06T05:28:55.014Z,26.60
2018-10-06T05:33:52.633Z,15.50
2018-10-06T05:38:50.195Z,14.80
2018-10-06T05:43:47.782Z,20.60
2018-10-06T05:48:45.309Z,21.30
2018-10-06T05:53:42.937Z,13.97
2018-10-06T05:58:40.445Z,16.97
2018-10-06T06:03:37.959Z,18.57
2018-10-06T06:08:35.575Z,23.23
2018-10-06T06:13:33.091Z,17.10
2018-10-06T06:18:30.593Z,15.10
2018-10-06T06:23:28.082Z,20.00
2018-10-06T06:28:25.664Z,11.30
2018-10-06T06:33:23.146Z,10.83
2018-10-06T06:38:20.690Z,12.87
2018-10-06T06:43:18.232Z,18.30
2018-10-06T06:48:15.738Z,18.73
2018-10-06T06:53:13.253Z,17.00
2018-10-06T06:58:10.847Z,11.63
2018-10-06T07:03:08.373Z,26.23
2018-10-06T07:08:06.023Z,15.93
2018-10-06T07:13:03.542Z,20.80
2018-10-06T07:18:01.147Z,16.67
2018-10-06T07:22:58.630Z,16.53
2018-10-06T07:27:56.134Z,16.43
2018-10-06T07:32:53.852Z,16.43
2018-10-06T07:37:51.326Z,13.20
2018-10-06T07:42:48.822Z,14.83
2018-10-06T07:47:46.349Z,21.73
2018-10-06T07:52:43.869Z,17.93
2018-10-06T07:57:41.350Z,20.63
2018-10-06T08:02:38.866Z,13.47
2018-10-06T08:07:36.374Z,12.23
2018-10-06T08:12:33.877Z,15.40
2018-10-06T08:17:31.364Z,12.93
2018-10-06T08:22:28.924Z,14.10
2018-10-06T08:27:26.451Z,11.27
2018-10-06T08:32:23.980Z,12.77
2018-10-06T08:37:21.505Z,15.97
2018-10-06T08:42:19.011Z,10.13
2018-10-06T08:47:16.629Z,9.43
2018-10-06T08:52:14.123Z,12.23
2018-10-06T08:57:11.733Z,11.60
2018-10-06T09:02:09.250Z,10.67
2018-10-06T09:07:06.807Z,14.50
2018-10-06T09:12:04.350Z,10.80
2018-10-06T09:17:01.890Z,8.40
2018-10-06T09:21:59.401Z,8.57
2018-10-06T09:26:56.911Z,16.60
2018-10-06T09:31:54.442Z,10.63
2018-10-06T09:36:52.037Z,9.57
2018-10-06T09:41:49.641Z,6.80
2018-10-06T09:46:47.145Z,8.53
2018-10-06T09:51:44.684Z,17.47
2018-10-06T09:56:42.342Z,6.03
2018-10-06T10:01:45.655Z,5.90
2018-10-06T10:06:43.208Z,7.27
2018-10-06T10:11:40.720Z,9.20
2018-10-06T10:16:38.253Z,9.33
2018-10-06T10:21:35.760Z,6.33
2018-10-06T10:26:33.274Z,18.20
2018-10-06T10:31:30.838Z,5.67
2018-10-06T10:36:28.361Z,8.43
2018-10-06T10:41:25.846Z,5.93
2018-10-06T10:46:23.340Z,11.60
2018-10-06T10:51:20.894Z,5.30
2018-10-06T10:56:18.402Z,10.10
2018-10-06T11:01:15.976Z,5.27
2018-10-06T11:06:14.302Z,8.03
2018-10-06T11:11:11.998Z,10.27
2018-10-06T11:16:09.518Z,5.90
2018-10-06T11:21:07.130Z,7.43
2018-10-06T11:26:04.685Z,10.30
2018-10-06T11:31:02.177Z,22.43
2018-10-06T11:35:59.687Z,6.03
2018-10-06T11:40:57.194Z,5.27
2018-10-06T11:45:54.809Z,4.17
2018-10-06T11:50:52.341Z,4.53
2018-10-06T11:55:49.895Z,6.37
2018-10-06T12:00:47.454Z,8.10
2018-10-06T12:05:44.980Z,10.80
2018-10-06T12:10:42.501Z,3.57
2018-10-06T12:15:40.030Z,2.80
2018-10-06T12:20:37.555Z,11.70
2018-10-06T12:25:35.089Z,14.10
2018-10-06T12:30:32.611Z,5.43
2018-10-06T12:35:30.263Z,3.17
2018-10-06T12:40:27.632Z,3.40
2018-10-06T12:45:25.135Z,2.40
2018-10-06T12:50:23.810Z,4.47
2018-10-06T12:55:21.338Z,3.37
2018-10-06T13:00:18.834Z,2.10
2018-10-06T13:05:16.432Z,5.20
2018-10-06T13:10:13.953Z,3.10
2018-10-06T13:15:11.445Z,2.70
2018-10-06T13:20:10.359Z,2.97
2018-10-06T13:25:07.893Z,2.30
2018-10-06T13:30:05.943Z,1.50
2018-10-06T13:35:03.524Z,10.10
2018-10-06T13:40:01.066Z,2.07
2018-10-06T13:44:58.646Z,2.50
2018-10-06T13:49:57.392Z,2.07
2018-10-06T13:54:57.487Z,4.03
2018-10-06T13:59:55.101Z,1.90
2018-10-06T14:04:54.399Z,2.13
2018-10-06T14:09:52.075Z,3.63
2018-10-06T14:14:49.619Z,5.17
2018-10-06T14:19:52.501Z,2.30
2018-10-06T14:24:51.144Z,2.60
2018-10-06T14:29:50.872Z,5.30
2018-10-06T14:34:48.648Z,2.07
2018-10-06T14:39:46.488Z,2.80
2018-10-06T14:44:44.051Z,3.77
2018-10-06T14:49:47.839Z,1.97
2018-10-06T14:54:45.487Z,8.23
2018-10-06T14:59:43.059Z,3.73
2018-10-06T15:04:40.782Z,2.70
2018-10-06T15:09:38.504Z,7.30
2018-10-06T15:14:36.039Z,10.10
2018-10-06T15:19:35.835Z,10.33
2018-10-06T15:24:35.031Z,3.90
2018-10-06T15:29:32.610Z,2.60
2018-10-06T15:34:30.105Z,5.73
2018-10-06T15:39:27.605Z,5.50
2018-10-06T15:44:25.105Z,5.33
2018-10-06T15:49:30.172Z,6.60
2018-10-06T15:54:27.835Z,9.37
2018-10-06T15:59:25.341Z,8.60
2018-10-06T16:04:22.839Z,15.43
2018-10-06T16:09:20.342Z,5.70
2018-10-06T16:14:17.847Z,12.57
2018-10-06T16:19:20.653Z,10.20
2018-10-06T16:24:18.223Z,5.37
2018-10-06T16:29:15.725Z,3.33
2018-10-06T16:34:13.230Z,4.07
2018-10-06T16:39:10.780Z,10.60
2018-10-06T16:44:08.299Z,6.57
2018-10-06T16:49:08.486Z,7.53
2018-10-06T16:54:06.010Z,4.13
2018-10-06T16:59:03.510Z,4.03
2018-10-06T17:04:02.719Z,3.87
2018-10-06T17:09:03.495Z,9.37
2018-10-06T17:14:03.118Z,6.90
2018-10-06T17:19:04.540Z,7.93
2018-10-06T17:24:03.547Z,11.37
2018-10-06T17:29:01.174Z,8.40
2018-10-06T17:33:59.425Z,3.70
2018-10-06T17:38:57.075Z,4.40
2018-10-06T17:43:54.578Z,11.30
2018-10-06T17:48:52.071Z,21.30
2018-10-06T17:53:49.672Z,7.97
2018-10-06T17:58:55.690Z,9.07
2018-10-06T18:03:53.449Z,16.27
2018-10-06T18:08:50.942Z,17.57
2018-10-06T18:13:48.493Z,20.43
2018-10-06T18:18:45.994Z,14.50
2018-10-06T18:23:43.481Z,14.47
2018-10-06T18:28:41.014Z,15.77
2018-10-06T18:33:42.472Z,16.77
2018-10-06T18:38:40.025Z,9.43
2018-10-06T18:43:37.666Z,17.03
2018-10-06T18:48:35.125Z,20.10
2018-10-06T18:53:32.583Z,17.97
2018-10-06T18:58:30.061Z,12.70
2018-10-06T19:03:27.580Z,10.23
2018-10-06T19:08:25.084Z,7.97
2018-10-06T19:13:22.552Z,8.80
2018-10-06T19:18:20.066Z,7.27
2018-10-06T19:23:17.610Z,6.60
2018-10-06T19:28:15.093Z,8.97
2018-10-06T19:33:12.590Z,9.13
2018-10-06T19:38:10.130Z,12.17
2018-10-06T19:43:07.597Z,10.07
2018-10-06T19:48:05.221Z,9.77
2018-10-06T19:53:02.702Z,12.97
2018-10-06T19:58:00.201Z,9.90
2018-10-06T20:02:57.687Z,14.23
2018-10-06T20:07:56.739Z,16.63
2018-10-06T20:12:54.395Z,11.87
2018-10-06T20:17:51.983Z,14.30
2018-10-06T20:22:49.785Z,9.53
2018-10-06T20:27:47.362Z,8.53
2018-10-06T20:32:44.976Z,11.77
2018-10-06T20:37:42.636Z,12.47
2018-10-06T20:42:40.173Z,12.90
2018-10-06T20:47:38.567Z,13.23
2018-10-06T20:52:36.184Z,13.50
2018-10-06T20:57:33.736Z,11.53
2018-10-06T21:02:31.344Z,16.40
2018-10-06T21:07:28.975Z,14.90
2018-10-06T21:12:26.486Z,13.83
2018-10-06T21:17:24.067Z,11.07
2018-10-06T21:22:21.616Z,11.13
2018-10-06T21:27:19.115Z,9.30
2018-10-06T21:32:16.838Z,12.87
2018-10-06T21:37:14.371Z,14.43
2018-10-06T21:42:11.870Z,17.63
2018-10-06T21:47:09.347Z,9.30
2018-10-06T21:52:06.837Z,16.30
2018-10-06T21:57:04.375Z,13.57
2018-10-06T22:02:04.472Z,17.70
2018-10-06T22:07:03.807Z,17.27
2018-10-06T22:12:01.422Z,11.97
2018-10-06T22:16:59.174Z,17.53
2018-10-06T22:21:56.675Z,13.73
2018-10-06T22:26:54.235Z,15.33
2018-10-06T22:31:52.401Z,18.63
2018-10-06T22:36:49.877Z,19.63
2018-10-06T22:41:47.358Z,16.90
2018-10-06T22:46:44.830Z,26.43
2018-10-06T22:51:42.318Z,31.23
2018-10-06T22:56:39.786Z,32.77
2018-10-06T23:01:37.310Z,39.37
2018-10-06T23:06:34.827Z,48.43
2018-10-06T23:11:32.301Z,52.03
2018-10-06T23:16:29.806Z,55.10
2018-10-06T23:21:27.357Z,58.90
2018-10-06T23:26:24.882Z,68.17
2018-10-06T23:31:22.393Z,72.23
2018-10-06T23:36:19.936Z,73.90
2018-10-06T23:41:17.389Z,71.50
2018-10-06T23:46:14.856Z,79.27
2018-10-06T23:51:12.409Z,92.27
2018-10-06T23:56:09.930Z,83.87
